Time;durP1;ratioP1;P1;durP2;ratioP2;P2;SDS_P1;SDS_P2;PMS_P1;PMS_P2;Temp;Humidity;BMP_temperature;BMP_pressure;BME280_temperature;BME280_humidity;BME280_pressure;Samples;Min_cycle;Max_cycle;Signal;HPM_P1;HPM_P2
2023/06/08 00:00:51;;;;;;;11.18;5.03;;;13.00;99.90;;;;;;6270679;22;20458;-75
2023/06/08 00:03:18;;;;;;;12.15;5.30;;;13.00;99.90;;;;;;6272833;22;20379;-74
2023/06/08 00:05:48;;;;;;;14.30;5.07;;;13.00;99.90;;;;;;6245197;23;20477;-74
2023/06/08 00:08:14;;;;;;;13.52;6.18;;;13.00;99.90;;;;;;6246191;22;20016;-74
2023/06/08 00:10:44;;;;;;;12.25;5.10;;;13.00;99.90;;;;;;6245508;23;20115;-75
2023/06/08 00:13:10;;;;;;;14.07;5.85;;;13.00;99.90;;;;;;6245167;22;20450;-75
2023/06/08 00:15:36;;;;;;;12.45;5.35;;;13.00;99.90;;;;;;6245424;23;20016;-75
2023/06/08 00:18:02;;;;;;;14.10;5.90;;;13.00;99.90;;;;;;6219285;23;20062;-76
2023/06/08 00:20:28;;;;;;;13.70;5.80;;;12.90;99.90;;;;;;6274715;22;20449;-75
2023/06/08 00:22:54;;;;;;;14.63;5.82;;;12.90;99.90;;;;;;6245060;23;20046;-75
2023/06/08 00:25:20;;;;;;;11.63;5.63;;;12.90;99.90;;;;;;6222340;22;20008;-76
2023/06/08 00:27:46;;;;;;;12.68;5.97;;;12.90;99.90;;;;;;6271018;22;20473;-76
2023/06/08 00:30:13;;;;;;;16.75;6.65;;;12.90;99.90;;;;;;6219787;22;20008;-76
2023/06/08 00:32:39;;;;;;;13.15;5.97;;;12.90;99.90;;;;;;6270782;22;20019;-76
2023/06/08 00:35:06;;;;;;;10.60;5.55;;;12.90;99.90;;;;;;6219821;23;20012;-76
2023/06/08 00:37:31;;;;;;;13.80;6.10;;;13.00;99.90;;;;;;6224682;22;20396;-75
2023/06/08 00:39:57;;;;;;;11.90;6.30;;;13.00;99.90;;;;;;6296187;22;20016;-75
2023/06/08 00:42:22;;;;;;;12.73;6.18;;;13.10;99.90;;;;;;6222697;22;20039;-76
2023/06/08 00:44:48;;;;;;;14.98;6.82;;;13.10;99.90;;;;;;6243631;23;20035;-76
2023/06/08 00:47:13;;;;;;;17.55;6.57;;;13.00;99.90;;;;;;6271576;22;20086;-76
2023/06/08 00:49:39;;;;;;;13.93;6.20;;;13.00;99.90;;;;;;6245212;23;20011;-75
2023/06/08 00:52:07;;;;;;;13.95;6.53;;;13.00;99.90;;;;;;6270709;22;20494;-76
2023/06/08 00:54:33;;;;;;;13.55;5.97;;;13.10;99.90;;;;;;6223820;22;20047;-76
2023/06/08 00:57:03;;;;;;;14.85;6.82;;;13.00;99.90;;;;;;6219837;23;20468;-76
2023/06/08 00:59:30;;;;;;;14.38;6.82;;;13.00;99.90;;;;;;6249186;22;20018;-75
2023/06/08 01:01:57;;;;;;;14.10;6.82;;;12.90;99.90;;;;;;6244977;23;20147;-76
2023/06/08 01:04:23;;;;;;;13.80;6.57;;;12.90;99.90;;;;;;6221977;22;20008;-76
2023/06/08 01:06:53;;;;;;;17.83;6.68;;;12.90;99.90;;;;;;6244671;23;20460;-76
2023/06/08 01:09:42;;;;;;;13.55;6.50;;;12.90;99.90;;;;;;6221702;22;20016;-76
2023/06/08 01:12:37;;;;;;;16.00;7.13;;;12.90;99.90;;;;;;6218751;23;20016;-76
2023/06/08 01:15:39;;;;;;;16.05;7.28;;;12.90;99.90;;;;;;6219121;23;20043;-76
2023/06/08 01:18:08;;;;;;;15.60;6.90;;;12.90;99.90;;;;;;6239080;23;20107;-76
2023/06/08 01:21:08;;;;;;;15.95;7.13;;;12.80;99.90;;;;;;6249781;22;20016;-76
2023/06/08 01:23:55;;;;;;;15.57;7.10;;;12.90;99.90;;;;;;6224346;22;20315;-75
2023/06/08 01:26:22;;;;;;;13.55;7.35;;;12.80;99.90;;;;;;6247108;22;20012;-76
2023/06/08 01:28:49;;;;;;;13.55;6.72;;;12.90;99.90;;;;;;6219494;23;20050;-75
2023/06/08 01:31:15;;;;;;;16.55;7.28;;;12.90;99.90;;;;;;6220776;22;20351;-76
2023/06/08 01:33:42;;;;;;;19.60;8.35;;;12.80;99.90;;;;;;6295270;22;20016;-76
2023/06/08 01:36:21;;;;;;;17.70;7.72;;;12.80;99.90;;;;;;6219287;23;20147;-76
2023/06/08 01:38:56;;;;;;;16.55;8.23;;;12.90;99.90;;;;;;6219472;23;20062;-76
2023/06/08 01:41:26;;;;;;;16.13;8.05;;;12.90;99.90;;;;;;6221161;22;20016;-76
2023/06/08 01:43:53;;;;;;;17.08;8.93;;;12.90;99.90;;;;;;6295126;22;20054;-76
2023/06/08 01:46:21;;;;;;;18.20;9.60;;;12.80;99.90;;;;;;6246146;22;20316;-76
2023/06/08 01:48:49;;;;;;;15.65;9.48;;;12.70;99.90;;;;;;6242819;23;20047;-76
2023/06/08 01:51:17;;;;;;;15.73;10.13;;;12.80;99.90;;;;;;6245194;22;20103;-76
2023/06/08 01:53:42;;;;;;;18.08;8.63;;;12.80;99.90;;;;;;6242646;23;20012;-76
2023/06/08 01:56:08;;;;;;;16.23;8.88;;;12.80;99.90;;;;;;6244203;23;20015;-76
2023/06/08 01:58:34;;;;;;;20.05;10.90;;;12.90;99.90;;;;;;6219189;23;20154;-76
2023/06/08 02:00:59;;;;;;;16.88;8.98;;;12.90;99.90;;;;;;6244414;23;20012;-76
2023/06/08 02:03:25;;;;;;;18.75;8.85;;;12.80;99.90;;;;;;6272920;22;20014;-76
2023/06/08 02:05:51;;;;;;;20.05;9.50;;;12.90;99.90;;;;;;6295504;22;20016;-76
2023/06/08 02:08:16;;;;;;;17.30;9.50;;;12.90;99.90;;;;;;6220714;22;20019;-76
2023/06/08 02:10:42;;;;;;;20.08;9.10;;;13.00;99.90;;;;;;6269432;22;20042;-76
2023/06/08 02:13:07;;;;;;;19.20;9.43;;;12.90;99.90;;;;;;6269209;22;20057;-76
2023/06/08 02:15:33;;;;;;;22.02;9.48;;;13.00;99.90;;;;;;6274679;22;20008;-76
2023/06/08 02:17:59;;;;;;;19.13;9.55;;;12.90;99.90;;;;;;6244432;23;20449;-76
2023/06/08 02:20:25;;;;;;;18.08;9.30;;;12.90;99.90;;;;;;6272883;22;20078;-76
2023/06/08 02:22:51;;;;;;;16.02;8.55;;;13.00;99.90;;;;;;6219174;23;20012;-76
2023/06/08 02:25:17;;;;;;;19.23;8.90;;;12.90;99.90;;;;;;6220141;22;20442;-76
2023/06/08 02:27:43;;;;;;;16.40;8.27;;;12.90;99.90;;;;;;6219048;23;20135;-75
2023/06/08 02:30:11;;;;;;;17.25;7.70;;;12.80;99.90;;;;;;6244382;23;20340;-76
2023/06/08 02:32:41;;;;;;;19.08;10.85;;;12.80;99.90;;;;;;6244339;23;20012;-76
2023/06/08 02:35:08;;;;;;;22.08;11.10;;;13.00;99.90;;;;;;6243886;23;20019;-76
2023/06/08 02:37:34;;;;;;;23.40;10.68;;;12.80;99.90;;;;;;6248631;22;20082;-76
2023/06/08 02:40:00;;;;;;;20.65;9.75;;;12.80;99.90;;;;;;6243958;23;20016;-76
2023/06/08 02:42:26;;;;;;;17.40;8.93;;;12.80;99.90;;;;;;6247728;22;20016;-76
2023/06/08 02:44:52;;;;;;;17.58;9.85;;;12.80;99.90;;;;;;6269509;22;20016;-76
2023/06/08 02:47:17;;;;;;;17.48;10.30;;;12.80;99.90;;;;;;6245907;22;20312;-76
2023/06/08 02:49:44;;;;;;;18.92;10.70;;;12.80;99.90;;;;;;6244206;23;20019;-76
2023/06/08 02:52:09;;;;;;;22.77;10.77;;;12.70;99.90;;;;;;6242687;22;20019;-76
2023/06/08 02:54:36;;;;;;;22.45;11.20;;;12.80;99.90;;;;;;6217887;23;20012;-77
2023/06/08 02:57:02;;;;;;;23.25;11.52;;;12.70;99.90;;;;;;6217424;23;20024;-76
2023/06/08 02:59:29;;;;;;;20.00;11.18;;;12.60;99.90;;;;;;6222295;22;20012;-76
2023/06/08 03:01:56;;;;;;;20.00;9.30;;;12.60;99.90;;;;;;6218928;23;20016;-76
2023/06/08 03:04:23;;;;;;;21.05;10.90;;;12.60;99.90;;;;;;6220139;22;20004;-76
2023/06/08 03:06:53;;;;;;;18.00;9.77;;;12.50;99.90;;;;;;6218038;23;20012;-76
2023/06/08 03:09:23;;;;;;;18.70;10.30;;;12.60;99.90;;;;;;6219980;22;20083;-76
2023/06/08 03:11:49;;;;;;;21.23;9.90;;;12.60;99.90;;;;;;6243334;23;20023;-76
2023/06/08 03:14:16;;;;;;;16.80;9.07;;;12.50;99.90;;;;;;6218627;22;20016;-76
2023/06/08 03:16:44;;;;;;;18.08;9.38;;;12.60;99.90;;;;;;6268358;22;20203;-76
2023/06/08 03:19:10;;;;;;;21.30;9.63;;;12.50;99.90;;;;;;6242718;22;20016;-76
2023/06/08 03:21:36;;;;;;;20.25;10.23;;;12.60;99.90;;;;;;6268745;22;20035;-76
2023/06/08 03:24:03;;;;;;;20.27;9.45;;;12.60;99.90;;;;;;6217656;23;20457;-77
2023/06/08 03:26:28;;;;;;;22.52;10.85;;;12.60;99.90;;;;;;6222586;22;20438;-75
2023/06/08 03:28:54;;;;;;;18.77;10.85;;;12.70;99.90;;;;;;6244566;23;20083;-75
2023/06/08 03:31:20;;;;;;;20.70;10.45;;;12.60;99.90;;;;;;6247304;22;20066;-75
2023/06/08 03:33:46;;;;;;;19.48;10.77;;;12.60;99.90;;;;;;6218634;23;20020;-75
2023/06/08 03:36:12;;;;;;;21.75;10.48;;;12.50;99.90;;;;;;6245766;22;20111;-76
2023/06/08 03:38:38;;;;;;;17.13;10.13;;;12.40;99.90;;;;;;6219459;23;20426;-75
2023/06/08 03:41:03;;;;;;;19.13;10.40;;;12.50;99.90;;;;;;6220135;23;20012;-75
2023/06/08 03:43:29;;;;;;;18.15;10.23;;;12.40;99.90;;;;;;6248622;22;20015;-75
2023/06/08 03:45:55;;;;;;;15.40;9.10;;;12.40;99.90;;;;;;6244868;23;20008;-75
2023/06/08 03:48:20;;;;;;;17.60;9.43;;;12.40;99.90;;;;;;6247981;22;20015;-75
2023/06/08 03:50:46;;;;;;;23.02;10.35;;;12.50;99.90;;;;;;6219289;23;20012;-75
2023/06/08 03:53:12;;;;;;;17.70;9.55;;;12.40;99.90;;;;;;6245543;22;20434;-75
2023/06/08 03:55:38;;;;;;;18.05;9.23;;;12.40;99.90;;;;;;6245037;23;20039;-75
2023/06/08 03:58:04;;;;;;;19.00;9.10;;;12.40;99.90;;;;;;6219592;23;20010;-75
2023/06/08 04:00:30;;;;;;;17.25;9.73;;;12.50;99.90;;;;;;6224222;22;20043;-75
2023/06/08 04:02:56;;;;;;;15.73;10.00;;;12.50;99.90;;;;;;6244328;23;20437;-75
2023/06/08 04:05:22;;;;;;;19.27;9.38;;;12.30;99.90;;;;;;6221811;22;20042;-75
2023/06/08 04:07:50;;;;;;;16.20;8.00;;;12.50;99.90;;;;;;6218673;23;20087;-76
2023/06/08 04:10:17;;;;;;;19.80;9.30;;;12.50;99.90;;;;;;6247078;22;20086;-75
2023/06/08 04:12:43;;;;;;;19.92;8.88;;;12.60;99.90;;;;;;6245062;23;20018;-75
2023/06/08 04:15:10;;;;;;;17.05;9.63;;;12.60;99.90;;;;;;6271158;22;20090;-75
2023/06/08 04:17:40;;;;;;;16.75;9.05;;;12.30;99.90;;;;;;6218901;23;20518;-75
2023/06/08 04:20:06;;;;;;;20.80;9.82;;;12.40;99.90;;;;;;6218980;23;20014;-76
2023/06/08 04:22:32;;;;;;;17.33;9.07;;;12.30;99.90;;;;;;6274882;22;20022;-75
2023/06/08 04:24:57;;;;;;;21.15;9.80;;;12.20;99.90;;;;;;6243451;23;20012;-75
2023/06/08 04:27:24;;;;;;;16.20;8.52;;;12.30;99.90;;;;;;6298145;22;20010;-76
2023/06/08 04:29:50;;;;;;;19.35;8.48;;;12.40;99.90;;;;;;6218375;23;20012;-76
2023/06/08 04:32:16;;;;;;;16.42;8.48;;;12.50;99.90;;;;;;6272271;22;20038;-75
2023/06/08 04:34:41;;;;;;;17.63;9.45;;;12.50;99.90;;;;;;6219223;23;20381;-75
2023/06/08 04:37:07;;;;;;;15.15;9.02;;;12.60;99.90;;;;;;6244308;23;20022;-76
2023/06/08 04:39:32;;;;;;;18.20;9.90;;;12.70;99.90;;;;;;6248727;22;20016;-76
2023/06/08 04:41:58;;;;;;;18.50;10.35;;;12.60;99.90;;;;;;6244474;23;20019;-75
2023/06/08 04:44:24;;;;;;;17.05;9.35;;;12.50;99.90;;;;;;6247014;22;20036;-77
2023/06/08 04:46:49;;;;;;;18.00;10.23;;;12.40;99.90;;;;;;6270305;22;20469;-76
2023/06/08 04:49:16;;;;;;;18.67;9.95;;;12.40;99.90;;;;;;6245481;22;20012;-77
2023/06/08 04:51:46;;;;;;;19.67;10.60;;;12.40;99.90;;;;;;6219475;23;20016;-76
2023/06/08 04:54:15;;;;;;;18.73;10.02;;;12.40;99.90;;;;;;6244854;22;20091;-76
2023/06/08 04:56:41;;;;;;;17.75;9.48;;;12.50;99.90;;;;;;6219426;23;20091;-75
2023/06/08 04:59:08;;;;;;;22.50;11.10;;;12.50;99.90;;;;;;6242882;23;20450;-75
2023/06/08 05:01:34;;;;;;;17.13;8.90;;;12.50;99.90;;;;;;6245051;23;20056;-76
2023/06/08 05:04:00;;;;;;;16.65;9.35;;;12.50;99.90;;;;;;6243043;23;20012;-76
2023/06/08 05:06:26;;;;;;;20.40;9.77;;;12.60;99.90;;;;;;6247966;22;20020;-76
2023/06/08 05:08:52;;;;;;;15.77;8.65;;;12.60;99.90;;;;;;6243881;23;20012;-76
2023/06/08 05:11:17;;;;;;;19.40;9.80;;;12.60;99.90;;;;;;6297020;22;20019;-76
2023/06/08 05:13:43;;;;;;;20.23;9.23;;;12.60;99.90;;;;;;6244907;23;20026;-75
2023/06/08 05:16:10;;;;;;;17.42;9.43;;;12.60;99.90;;;;;;6218709;23;20023;-77
2023/06/08 05:18:36;;;;;;;19.20;8.65;;;12.70;99.90;;;;;;6243243;23;20031;-76
2023/06/08 05:21:02;;;;;;;16.55;8.07;;;12.60;99.90;;;;;;6219494;23;20455;-76
2023/06/08 05:23:27;;;;;;;21.38;10.32;;;12.70;99.90;;;;;;6299517;22;20012;-76
2023/06/08 05:25:53;;;;;;;18.80;9.80;;;12.80;99.90;;;;;;6244777;23;20342;-76
2023/06/08 05:28:18;;;;;;;17.77;9.48;;;12.80;99.90;;;;;;6220028;22;20043;-76
2023/06/08 05:30:44;;;;;;;18.13;9.82;;;12.70;99.90;;;;;;6243974;23;20012;-76
2023/06/08 05:33:10;;;;;;;22.25;9.75;;;12.80;99.90;;;;;;6268769;22;20067;-76
2023/06/08 05:35:36;;;;;;;18.55;9.13;;;12.90;99.90;;;;;;6244455;23;20012;-75
2023/06/08 05:38:02;;;;;;;16.25;9.30;;;13.10;99.90;;;;;;6295075;22;20338;-76
2023/06/08 05:40:27;;;;;;;18.00;9.13;;;13.10;99.90;;;;;;6248176;22;20008;-76
2023/06/08 05:42:53;;;;;;;22.40;9.93;;;13.20;99.90;;;;;;6294888;22;20012;-76
2023/06/08 05:45:18;;;;;;;18.48;9.45;;;13.30;99.90;;;;;;6221012;22;20019;-76
2023/06/08 05:47:44;;;;;;;19.55;10.02;;;13.20;99.90;;;;;;6268098;22;20011;-76
2023/06/08 05:50:10;;;;;;;19.23;10.13;;;13.30;99.90;;;;;;6218408;22;20328;-76
2023/06/08 05:52:36;;;;;;;22.33;11.18;;;13.30;99.90;;;;;;6243717;23;20091;-76
2023/06/08 05:55:01;;;;;;;22.45;10.85;;;13.30;99.90;;;;;;6219255;23;20016;-76
2023/06/08 05:57:27;;;;;;;17.90;10.30;;;13.30;99.90;;;;;;6222305;22;20018;-76
2023/06/08 05:59:53;;;;;;;17.50;10.30;;;13.20;99.90;;;;;;6242926;23;20453;-76
2023/06/08 06:02:18;;;;;;;18.98;9.77;;;13.30;99.90;;;;;;6218961;22;20023;-76
2023/06/08 06:04:44;;;;;;;16.77;8.90;;;13.40;99.90;;;;;;6259077;22;20012;-76
2023/06/08 06:07:10;;;;;;;16.58;7.60;;;13.50;99.90;;;;;;6219171;22;20012;-76
2023/06/08 06:09:36;;;;;;;16.20;8.43;;;13.60;99.90;;;;;;6216930;23;20016;-76
2023/06/08 06:12:02;;;;;;;14.35;7.53;;;13.90;99.90;;;;;;6217572;23;20012;-75
2023/06/08 06:14:35;;;;;;;14.20;7.20;;;13.90;99.90;;;;;;6216961;23;20018;-75
2023/06/08 06:17:00;;;;;;;15.60;7.10;;;14.00;99.90;;;;;;6217529;23;20016;-75
2023/06/08 06:19:26;;;;;;;15.23;6.57;;;14.10;99.90;;;;;;6242946;23;20023;-77
2023/06/08 06:21:52;;;;;;;15.13;6.72;;;14.20;99.90;;;;;;6217577;23;20043;-76
2023/06/08 06:24:18;;;;;;;19.45;7.32;;;14.20;99.90;;;;;;6242791;23;20346;-75
2023/06/08 06:26:44;;;;;;;16.58;7.05;;;14.20;99.90;;;;;;6216995;23;20439;-76
2023/06/08 06:29:10;;;;;;;19.15;6.30;;;14.30;99.90;;;;;;6216350;23;20087;-76
2023/06/08 06:31:35;;;;;;;17.50;6.53;;;14.50;99.90;;;;;;6218347;23;20016;-76
2023/06/08 06:34:01;;;;;;;16.40;5.57;;;14.60;99.90;;;;;;6216733;23;20465;-77
2023/06/08 06:36:27;;;;;;;19.45;8.20;;;14.60;99.90;;;;;;6192961;23;20008;-90
2023/06/08 06:38:52;;;;;;;14.75;6.13;;;14.70;99.90;;;;;;6268363;22;20446;-75
2023/06/08 06:41:18;;;;;;;15.70;6.07;;;14.80;99.90;;;;;;6217900;23;20451;-75
2023/06/08 06:43:43;;;;;;;14.98;5.72;;;14.80;99.90;;;;;;6217337;23;20386;-75
2023/06/08 06:46:09;;;;;;;13.18;6.25;;;14.90;99.90;;;;;;6192742;23;20359;-75
2023/06/08 06:48:35;;;;;;;15.85;5.93;;;15.00;99.90;;;;;;6242351;23;20062;-75
2023/06/08 06:51:00;;;;;;;13.52;5.55;;;15.10;99.90;;;;;;6193071;23;20026;-75
2023/06/08 06:53:26;;;;;;;11.35;5.60;;;15.10;99.90;;;;;;6216748;23;20378;-75
2023/06/08 06:55:52;;;;;;;16.73;5.97;;;15.20;99.90;;;;;;6267197;22;20394;-75
2023/06/08 06:58:19;;;;;;;22.15;5.47;;;15.30;99.90;;;;;;6243233;23;20020;-75
2023/06/08 07:00:45;;;;;;;14.07;5.38;;;15.30;99.90;;;;;;6242614;23;20044;-75
2023/06/08 07:03:13;;;;;;;12.05;5.85;;;15.50;99.90;;;;;;6219189;23;20504;-75
2023/06/08 07:05:38;;;;;;;14.90;5.53;;;15.40;99.90;;;;;;6219814;23;20016;-75
2023/06/08 07:08:04;;;;;;;16.73;5.10;;;15.40;99.90;;;;;;6219471;23;20067;-75
2023/06/08 07:10:30;;;;;;;15.05;5.15;;;15.50;99.90;;;;;;6244810;23;20367;-75
2023/06/08 07:12:56;;;;;;;14.73;5.30;;;15.60;99.90;;;;;;6270389;22;20035;-87
2023/06/08 07:15:22;;;;;;;15.55;5.55;;;15.60;99.90;;;;;;6245712;23;20016;-91
2023/06/08 07:17:51;;;;;;;14.15;5.28;;;15.60;99.90;;;;;;6243596;23;20016;-85
2023/06/08 07:20:16;;;;;;;14.50;5.10;;;15.70;99.90;;;;;;6270249;22;20043;-83
2023/06/08 07:22:42;;;;;;;10.15;4.95;;;15.70;99.90;;;;;;6244530;23;20013;-86
2023/06/08 07:25:08;;;;;;;12.15;4.80;;;15.80;99.90;;;;;;6269353;22;20382;-86
2023/06/08 07:27:33;;;;;;;15.18;5.35;;;15.80;99.90;;;;;;6269593;22;20015;-85
2023/06/08 07:29:59;;;;;;;12.90;5.60;;;15.90;99.90;;;;;;6244979;23;20015;-86
2023/06/08 07:32:26;;;;;;;15.73;4.68;;;16.00;99.90;;;;;;6244231;23;20447;-80
2023/06/08 07:34:52;;;;;;;13.35;5.28;;;16.00;99.90;;;;;;6270057;22;20063;-80
2023/06/08 07:37:17;;;;;;;14.45;5.57;;;16.10;99.90;;;;;;6244261;23;20012;-81
2023/06/08 07:39:43;;;;;;;12.88;4.93;;;16.00;99.90;;;;;;6269585;22;20008;-79
2023/06/08 07:42:09;;;;;;;14.45;5.18;;;16.10;99.90;;;;;;6219674;23;20012;-83
2023/06/08 07:44:34;;;;;;;15.27;5.15;;;16.20;99.90;;;;;;6295405;22;20341;-77
2023/06/08 07:47:00;;;;;;;15.93;6.95;;;16.30;99.90;;;;;;6219323;23;20016;-75
2023/06/08 07:49:28;;;;;;;14.30;5.00;;;16.30;99.90;;;;;;6218667;23;20468;-74
2023/06/08 07:51:54;;;;;;;14.43;5.18;;;16.50;99.90;;;;;;6216626;23;20390;-75
2023/06/08 07:54:20;;;;;;;18.00;5.78;;;16.50;99.90;;;;;;6294507;22;20051;-75
2023/06/08 07:56:47;;;;;;;13.32;4.80;;;16.50;99.90;;;;;;6219577;23;20020;-75
2023/06/08 07:59:12;;;;;;;18.00;5.65;;;16.70;99.90;;;;;;6244320;23;20008;-75
2023/06/08 08:01:38;;;;;;;13.23;4.35;;;16.70;99.90;;;;;;6244463;23;20055;-75
2023/06/08 08:04:03;;;;;;;16.90;5.10;;;16.90;99.90;;;;;;6295262;22;20008;-76
2023/06/08 08:06:30;;;;;;;13.90;4.22;;;16.90;99.90;;;;;;6295555;22;20052;-86
2023/06/08 08:08:56;;;;;;;15.70;5.40;;;17.00;99.90;;;;;;6270352;22;20016;-82
2023/06/08 08:11:21;;;;;;;12.20;4.55;;;17.00;99.90;;;;;;6219123;23;20058;-82
2023/06/08 08:13:47;;;;;;;11.77;5.07;;;16.90;99.90;;;;;;6269023;22;20020;-81
2023/06/08 08:16:13;;;;;;;14.02;4.97;;;17.00;99.90;;;;;;6244808;23;20027;-82
2023/06/08 08:18:38;;;;;;;11.93;4.75;;;17.10;99.90;;;;;;6295474;22;20565;-81
2023/06/08 08:21:04;;;;;;;12.70;4.78;;;17.10;99.90;;;;;;6269464;22;20054;-81
2023/06/08 08:23:29;;;;;;;13.63;4.95;;;17.30;99.90;;;;;;6269409;22;20095;-81
2023/06/08 08:25:55;;;;;;;14.90;5.03;;;17.40;99.90;;;;;;6269806;22;20338;-81
2023/06/08 08:28:21;;;;;;;19.20;5.35;;;17.50;99.90;;;;;;6295129;22;20040;-82
2023/06/08 08:30:46;;;;;;;13.68;4.68;;;17.60;99.90;;;;;;6269675;22;20012;-81
2023/06/08 08:33:12;;;;;;;13.02;4.47;;;17.70;99.90;;;;;;6269350;22;20012;-81
2023/06/08 08:35:38;;;;;;;13.68;4.90;;;17.80;99.90;;;;;;6218775;23;20008;-81
2023/06/08 08:38:04;;;;;;;11.48;4.82;;;17.70;99.90;;;;;;6219354;23;20047;-81
2023/06/08 08:40:29;;;;;;;13.65;4.78;;;17.80;99.90;;;;;;6269727;22;20016;-81
2023/06/08 08:43:36;;;;;;;13.85;4.85;;;17.90;99.90;;;;;;6294678;22;20091;-81
2023/06/08 08:46:06;;;;;;;12.88;4.70;;;17.90;99.90;;;;;;6266245;22;20066;-80
2023/06/08 08:48:36;;;;;;;14.88;4.80;;;18.00;99.90;;;;;;6219098;23;20012;-79
2023/06/08 08:51:04;;;;;;;14.32;4.80;;;18.10;99.90;;;;;;6216057;23;20450;-81
2023/06/08 08:53:30;;;;;;;12.35;4.50;;;18.20;99.90;;;;;;6243156;23;20004;-81
2023/06/08 08:55:59;;;;;;;14.20;4.80;;;18.20;99.90;;;;;;6218707;23;20146;-82
2023/06/08 08:58:26;;;;;;;12.60;4.68;;;18.30;99.90;;;;;;6292781;22;20062;-87
2023/06/08 09:00:52;;;;;;;11.90;4.18;;;18.40;99.90;;;;;;6269112;22;20011;-87
2023/06/08 09:03:18;;;;;;;12.73;4.95;;;18.40;99.90;;;;;;6270414;22;20348;-86
2023/06/08 09:05:44;;;;;;;14.07;4.78;;;18.40;99.90;;;;;;6295670;22;20481;-86
2023/06/08 09:08:11;;;;;;;14.18;5.38;;;18.50;99.90;;;;;;6218888;23;20052;-86
2023/06/08 09:10:37;;;;;;;11.40;4.53;;;18.50;99.90;;;;;;6269470;22;20047;-85
2023/06/08 09:13:02;;;;;;;12.95;4.60;;;18.60;99.90;;;;;;6269836;22;20454;-86
2023/06/08 09:15:34;;;;;;;13.13;4.70;;;18.70;99.90;;;;;;6296125;22;20450;-86
2023/06/08 09:18:02;;;;;;;;;;;18.90;99.90;;;;;;6244965;23;20012;-85
2023/06/08 09:20:36;;;;;;;14.52;4.70;;;18.90;99.90;;;;;;6218868;23;20245;-84
2023/06/08 09:23:15;;;;;;;13.63;4.20;;;18.90;99.90;;;;;;6270341;22;20090;-86
2023/06/08 09:25:41;;;;;;;14.13;4.88;;;19.00;99.90;;;;;;6270102;22;20012;-83
2023/06/08 09:28:17;;;;;;;15.15;4.65;;;19.00;99.90;;;;;;6267137;22;20066;-79
2023/06/08 09:30:49;;;;;;;15.77;4.88;;;19.00;99.90;;;;;;6217700;23;20019;-82
2023/06/08 09:33:24;;;;;;;14.63;4.47;;;19.00;99.90;;;;;;6268718;22;20039;-80
2023/06/08 09:36:15;;;;;;;14.75;4.88;;;19.00;99.90;;;;;;6217554;23;20438;-81
2023/06/08 09:38:42;;;;;;;13.68;5.05;;;19.00;99.90;;;;;;6243093;23;20062;-80
2023/06/08 09:41:16;;;;;;;12.18;4.70;;;19.20;99.90;;;;;;6295150;22;20012;-81
2023/06/08 09:43:46;;;;;;;14.68;4.93;;;19.30;99.90;;;;;;6215681;23;20023;-81
2023/06/08 09:46:16;;;;;;;12.35;5.05;;;19.30;99.90;;;;;;6243402;23;20014;-81
2023/06/08 09:48:53;;;;;;;13.20;5.45;;;19.30;99.90;;;;;;6218188;23;20008;-82
2023/06/08 09:51:21;;;;;;;11.60;5.00;;;19.30;99.90;;;;;;6217811;23;20074;-82
2023/06/08 09:53:52;;;;;;;14.60;4.50;;;19.40;99.90;;;;;;6242353;23;20433;-83
2023/06/08 09:56:22;;;;;;;13.13;4.82;;;19.50;99.90;;;;;;6295232;22;20019;-82
2023/06/08 09:58:51;;;;;;;12.77;4.50;;;19.60;99.90;;;;;;6217915;23;20094;-82
2023/06/08 10:01:27;;;;;;;16.00;5.13;;;19.80;99.90;;;;;;6241833;23;20016;-82
2023/06/08 10:03:59;;;;;;;15.43;4.97;;;19.80;99.90;;;;;;6216942;23;20095;-82
2023/06/08 10:06:26;;;;;;;10.57;3.83;;;19.80;99.90;;;;;;6243651;23;20057;-83
2023/06/08 10:08:55;;;;;;;13.15;5.05;;;19.90;99.90;;;;;;6217580;23;20016;-82
2023/06/08 10:11:21;;;;;;;14.95;4.13;;;19.80;99.90;;;;;;6217471;23;20012;-83
2023/06/08 10:13:47;;;;;;;12.90;4.28;;;20.00;99.90;;;;;;6217671;23;20354;-84
2023/06/08 10:16:13;;;;;;;12.68;4.65;;;20.20;99.90;;;;;;6216297;23;20026;-83
2023/06/08 10:18:40;;;;;;;11.93;5.07;;;20.10;99.90;;;;;;6267568;22;20014;-82
2023/06/08 10:21:06;;;;;;;13.00;4.68;;;19.90;99.90;;;;;;6268262;22;20051;-83
2023/06/08 10:23:32;;;;;;;10.90;4.60;;;20.00;99.90;;;;;;6293848;22;20008;-81
2023/06/08 10:26:00;;;;;;;15.93;4.80;;;20.10;99.90;;;;;;6294215;22;20342;-83
2023/06/08 10:28:26;;;;;;;14.52;4.90;;;20.20;99.90;;;;;;6242662;23;20012;-84
2023/06/08 10:30:51;;;;;;;12.70;4.50;;;20.30;99.90;;;;;;6243193;23;20120;-83
2023/06/08 10:33:20;;;;;;;12.75;4.78;;;20.40;99.90;;;;;;6268611;22;20010;-84
2023/06/08 10:36:09;;;;;;;11.25;4.30;;;20.50;99.90;;;;;;6217006;23;20064;-83
2023/06/08 10:38:54;;;;;;;12.55;4.30;;;20.50;99.90;;;;;;6217278;23;20099;-82
2023/06/08 10:41:42;;;;;;;16.15;3.92;;;20.60;99.90;;;;;;6218117;23;20051;-85
2023/06/08 10:44:33;;;;;;;11.05;4.13;;;20.70;99.90;;;;;;6217767;23;20016;-82
2023/06/08 10:47:06;;;;;;;12.40;4.50;;;20.80;99.90;;;;;;6217662;23;20012;-82
2023/06/08 10:49:34;;;;;;;17.70;5.05;;;20.70;99.90;;;;;;6294288;22;20031;-82
2023/06/08 10:52:02;;;;;;;10.75;4.25;;;20.80;99.90;;;;;;6242518;23;20016;-82
2023/06/08 10:54:28;;;;;;;10.13;4.25;;;20.80;99.90;;;;;;6217411;23;20015;-80
2023/06/08 10:56:57;;;;;;;13.85;4.70;;;20.70;99.90;;;;;;6242713;23;20458;-81
2023/06/08 10:59:50;;;;;;;10.82;3.92;;;20.70;99.90;;;;;;6217617;23;20023;-79
2023/06/08 11:02:16;;;;;;;11.80;4.50;;;20.80;99.90;;;;;;6262385;22;20070;-80
2023/06/08 11:04:41;;;;;;;12.73;4.50;;;20.90;99.90;;;;;;6293613;22;20083;-80
2023/06/08 11:07:07;;;;;;;12.15;4.18;;;20.90;99.90;;;;;;6242705;23;20019;-79
2023/06/08 11:09:34;;;;;;;13.13;3.85;;;21.00;99.90;;;;;;6268493;22;20450;-81
2023/06/08 11:12:00;;;;;;;10.27;3.90;;;21.10;99.90;;;;;;6217005;23;20015;-83
2023/06/08 11:14:26;;;;;;;11.38;4.20;;;21.10;99.90;;;;;;6267774;22;20016;-82
2023/06/08 11:16:54;;;;;;;12.90;4.22;;;21.10;99.90;;;;;;6268396;22;20087;-85
2023/06/08 11:19:23;;;;;;;13.20;4.45;;;21.10;99.90;;;;;;6217399;23;20047;-81
2023/06/08 11:21:55;;;;;;;14.73;5.32;;;21.30;99.90;;;;;;6217222;23;20008;-83
2023/06/08 11:24:28;;;;;;;11.70;4.63;;;21.20;99.90;;;;;;6217642;23;20008;-82
2023/06/08 11:27:00;;;;;;;10.13;4.25;;;21.20;99.90;;;;;;6242377;23;20477;-83
2023/06/08 11:29:27;;;;;;;14.70;4.40;;;21.20;99.90;;;;;;6242779;23;20017;-82
2023/06/08 11:31:53;;;;;;;9.27;4.22;;;21.20;99.90;;;;;;6218216;23;20087;-82
2023/06/08 11:34:19;;;;;;;11.50;4.53;;;21.10;99.90;;;;;;6217458;23;20058;-82
2023/06/08 11:36:46;;;;;;;11.23;4.43;;;21.10;99.90;;;;;;6293712;22;20348;-83
2023/06/08 11:39:12;;;;;;;11.43;4.22;;;21.00;99.90;;;;;;6268281;22;20521;-83
2023/06/08 11:41:41;;;;;;;13.15;4.38;;;21.00;99.90;;;;;;6267036;22;20051;-84
2023/06/08 11:44:08;;;;;;;13.35;4.43;;;21.00;99.90;;;;;;6267853;22;20008;-83
2023/06/08 11:46:35;;;;;;;13.45;4.65;;;21.10;99.90;;;;;;6247756;22;20015;-84
2023/06/08 11:49:10;;;;;;;11.07;4.57;;;21.00;99.90;;;;;;6274199;22;20012;-84
2023/06/08 11:51:50;;;;;;;11.48;4.57;;;21.10;99.90;;;;;;6300729;22;20094;-83
2023/06/08 11:54:16;;;;;;;12.38;3.97;;;21.20;99.90;;;;;;6224189;22;20016;-85
2023/06/08 11:56:46;;;;;;;10.30;3.80;;;21.10;99.90;;;;;;6224792;22;20012;-82
2023/06/08 11:59:15;;;;;;;11.10;4.72;;;21.20;99.90;;;;;;6223652;22;20011;-83
2023/06/08 12:02:00;;;;;;;14.68;4.47;;;21.20;99.90;;;;;;6300747;22;20015;-84
2023/06/08 12:04:35;;;;;;;12.30;4.20;;;21.20;99.90;;;;;;6275548;22;20022;-83
2023/06/08 12:07:10;;;;;;;14.10;4.90;;;21.10;99.90;;;;;;6249363;22;20019;-83
2023/06/08 12:09:37;;;;;;;11.88;4.45;;;21.20;99.90;;;;;;6250558;22;20023;-83
2023/06/08 12:12:10;;;;;;;12.15;4.25;;;21.10;99.90;;;;;;6249328;22;20135;-83
2023/06/08 12:14:43;;;;;;;10.02;4.35;;;21.10;99.90;;;;;;6250513;22;20101;-83
2023/06/08 12:17:14;;;;;;;12.10;4.47;;;21.10;99.90;;;;;;6301436;22;20012;-83
2023/06/08 12:19:44;;;;;;;15.98;4.45;;;21.20;99.90;;;;;;6224131;22;20011;-82
2023/06/08 12:22:13;;;;;;;12.15;3.83;;;21.10;99.90;;;;;;6223986;22;20022;-83
2023/06/08 12:24:39;;;;;;;8.65;3.63;;;21.40;99.90;;;;;;6224188;22;20039;-84
2023/06/08 12:27:07;;;;;;;10.45;4.05;;;21.30;99.90;;;;;;6277192;22;20026;-90
2023/06/08 12:29:37;;;;;;;10.93;4.05;;;21.20;99.90;;;;;;6275766;22;20018;-87
2023/06/08 12:32:06;;;;;;;9.10;4.30;;;21.10;99.90;;;;;;6302043;22;20038;-87
2023/06/08 12:34:37;;;;;;;11.93;4.50;;;21.20;99.90;;;;;;6224122;22;20015;-87
2023/06/08 12:37:08;;;;;;;9.88;3.88;;;21.30;99.90;;;;;;6227862;22;20086;-87
2023/06/08 12:39:35;;;;;;;11.40;4.03;;;21.10;99.90;;;;;;6276965;22;20516;-90